Historyczne dane pomiarowe

Dodano dane terminowe – wersja testowa.

Dane z okresu 1951-2019

Wersja bazy: 1.34 [2019-03-16, lista zmian], aktualizacja planowana na 2019-04-15

Dane meteo z obszaru Polski uzyskane na podstawie danych udostępnionych przez Instytut Meteorologii i Gospodarki Wodnej – Państwowy Instytut Badawczy.

 

Wybierz Datę:    

       

TemperaturaWilgotnośćWiatrCiśnienieOpadyŚniegCzas trwania zjawisk
 Stacja t tx tn tng RH VA  wxwx mslp ppp RRR   cm mm wxwxwxwxwxwxwx
1961-08-14 14.2 19.6 9.0 4.1 79.5- 2.0 0.3---- 0.0------------
1961-08-13 12.9 18.2 11.3 13.5 92.8- 5.3 2.0---- 8.8------------
1961-08-12 19.8 25.1 16.6 12.0 85.5- 6.7 1.0---- 21.0------------
1961-08-11 24.8 34.3 19.2 15.1 66.8- 1.3 1.3---- 0.0------------
1961-08-10 24.6 31.0 19.4 17.6 78.3- 2.3 1.7---- 0.0------------
1961-08-09 23.3 29.6 14.6 10.7 77.5- 6.0 0.3---- 15.6------------
1961-08-08 19.7 25.2 17.9 15.4 77.8- 6.0 2.0---- 0.0------------
1961-08-07 23.6 31.0 17.0 12.0 68.8- 0.7 1.3---- 0.0------------
1961-08-06 24.5 31.1 15.4 9.6 59.0- 0.3 1.7---- 0.0------------
1961-08-05 19.3 24.2 15.2 12.2 73.3- 5.7 1.0---- 0.0------------
1961-08-04 16.3 21.6 11.0 8.2 76.5- 4.0 1.0---- 0.0------------
1961-08-03 18.1 22.9 14.8 10.8 84.8- 7.0 1.0---- 8.0------------
1961-08-02 19.5 25.9 10.4 6.1 70.3- 1.0 0.3---- 0.0------------
1961-08-01 16.2 22.1 11.2 6.0 71.0- 2.7 1.3---- 0.0------------
1961-07-31 13.5 17.6 10.5 10.4 89.0- 7.3 2.0---- 1.7------------
1961-07-30 11.4 13.0 10.6 11.8 95.5- 8.0 3.3---- 47.7------------
1961-07-29 14.1 18.2 12.5 15.4 93.3- 8.0 2.3---- 21.1------------
1961-07-28 22.0 29.6 17.4 13.2 69.8- 6.0 1.7---- 6.6------------
1961-07-27 22.0 28.7 14.0 7.9 58.5- 4.7 1.7---- 0.0------------
1961-07-26 17.5 22.9 11.8 10.9 61.8- 1.7 1.7---- 0.0------------
1961-07-25 14.6 17.7 10.3 6.4 66.0- 7.0 1.3---- 0.0------------
1961-07-24 15.4 19.2 9.9 5.9 68.8- 7.3 1.0---- 0.0------------
1961-07-23 16.8 21.6 9.7 9.0 71.5- 7.3 1.3---- 0.0------------
1961-07-22 15.0 19.6 12.4 6.9 80.0- 6.3 1.7---- 0.4------------
1961-07-21 15.3 20.2 9.6 5.1 83.5- 5.3 1.7---- 1.0------------
1961-07-20 14.5 17.2 9.5 4.9 87.0- 7.0 1.0---- 2.2------------
1961-07-19 15.4 21.6 9.2 5.0 80.3- 5.0 0.7---- 0.0------------
1961-07-18 14.2 19.9 10.2 5.8 78.0- 2.7 1.0---- 0.0------------
1961-07-17 16.4 23.1 13.5 10.5 78.3- 6.0 1.0---- 4.5------------
1961-07-16 16.7 23.2 14.4 11.6 75.3- 2.3 3.0---- 0.7------------
1961-07-15 19.3 25.7 10.8 5.4 70.3- 5.3 1.3---- 1.2------------
1961-07-14 14.3 20.4 12.1 9.4 75.5- 4.3 4.7---- 0.0------------
1961-07-13 20.8 29.1 17.2 12.8 74.8- 3.3 3.0---- 9.0------------
1961-07-12 21.4 27.6 12.4 7.2 59.0- 3.0 1.7---- 0.7------------
1961-07-11 15.8 21.5 7.6 2.7 65.5- 3.7 1.3---- 0.0------------
1961-07-10 13.6 20.2 10.8 8.4 79.8- 6.7 4.0---- 9.3------------
1961-07-09 16.5 24.3 9.9 4.6 70.5- 6.3 1.3---- 0.2------------
1961-07-08 14.7 21.1 6.6 2.6 68.8- 3.3 0.3---- 0.0------------
1961-07-07 13.1 18.6 9.8 6.1 74.0- 5.7 1.3---- 0.0------------
1961-07-06 13.4 17.3 8.7 3.7 68.3- 4.3 2.0---- 0.0------------
1961-07-05 15.1 19.6 13.4 13.4 76.3- 6.7 1.3---- 0.0------------
1961-07-04 22.5 30.6 16.2 10.4 71.5- 2.7 1.0---- 16.8------------
1961-07-03 22.2 30.6 11.3 5.6 58.5- 0.0 0.3---- 0.0------------
1961-07-02 19.9 28.1 11.0 5.7 63.8- 0.0 0.7---- 0.0------------
1961-07-01 20.7 26.7 11.8 6.8 60.3- 1.0 1.3---- 0.0------------
1961-06-30 17.9 23.3 10.6 6.4 70.3- 2.0 1.0---- 0.0------------
1961-06-29 15.9 21.1 7.5 2.9 69.3- 3.0 1.0---- 0.0------------
1961-06-28 14.1 19.6 12.4 15.5 83.0- 6.7 2.3---- 2.2------------
1961-06-27 23.3 32.5 16.8 11.7 70.5- 2.7 2.0---- 17.2------------
1961-06-26 24.1 31.1 14.6 9.7 67.0- 4.3 1.7---- 0.1------------
1961-06-25 23.0 29.8 10.8 5.5 57.5- 1.0 1.0---- 0.0------------
1961-06-24 18.9 25.9 11.8 7.7 65.3- 4.7 3.7---- 0.0------------
1961-06-23 18.3 24.1 16.4 11.8 80.0- 6.0 1.3---- 0.0------------
1961-06-22 18.3 24.4 10.4 5.7 64.5- 4.0 1.7---- 3.6------------
1961-06-21 17.8 24.2 6.3 1.1 63.3- 0.7 0.7---- 0.0------------
1961-06-20 15.7 20.8 11.7 6.1 60.8- 3.7 1.7---- 0.0------------
1961-06-19 20.6 28.6 16.2 9.6 66.0- 4.3 2.0---- 0.0------------
1961-06-18 19.8 26.2 8.8 4.2 65.3- 3.7 1.7---- 0.0------------
1961-06-17 15.6 22.4 7.1 2.7 67.5- 1.3 1.0---- 0.0------------
1961-06-16 14.2 19.3 8.3 4.7 70.3- 2.0 1.3---- 0.0------------
349.7 ms

 

Źródłem pochodzenia danych jest Instytut Meteorologii i Gospodarki Wodnej – Państwowy Instytut Badawczy. Dane Instytutu Meteorologii i Gospodarki Wodnej – Państwowego Instytutu Badawczego zostały przetworzone.

Dane źródłowe można odnaleźć na stronie https://dane.imgw.pl